sensor_id;sensor_type;location;lat;lon;timestamp;P1;durP1;ratioP1;P2;durP2;ratioP2
14125;SDS011;7141;49.484;11.242;2023-02-28T00:01:10;7.23;;;2.83;;
14125;SDS011;7141;49.484;11.242;2023-02-28T00:03:36;4.17;;;2.73;;
14125;SDS011;7141;49.484;11.242;2023-02-28T00:06:06;4.87;;;2.70;;
14125;SDS011;7141;49.484;11.242;2023-02-28T00:08:32;3.33;;;2.60;;
14125;SDS011;7141;49.484;11.242;2023-02-28T00:11:02;5.43;;;2.60;;
14125;SDS011;7141;49.484;11.242;2023-02-28T00:13:28;6.40;;;3.33;;
14125;SDS011;7141;49.484;11.242;2023-02-28T00:16:01;4.30;;;2.70;;
14125;SDS011;7141;49.484;11.242;2023-02-28T00:18:27;3.97;;;2.77;;
14125;SDS011;7141;49.484;11.242;2023-02-28T00:20:53;5.73;;;3.23;;
14125;SDS011;7141;49.484;11.242;2023-02-28T00:23:19;2.90;;;2.63;;
14125;SDS011;7141;49.484;11.242;2023-02-28T00:25:45;4.70;;;2.77;;
14125;SDS011;7141;49.484;11.242;2023-02-28T00:28:11;6.97;;;3.20;;
14125;SDS011;7141;49.484;11.242;2023-02-28T00:30:37;4.33;;;2.90;;
14125;SDS011;7141;49.484;11.242;2023-02-28T00:33:03;6.67;;;2.97;;
14125;SDS011;7141;49.484;11.242;2023-02-28T00:35:29;4.57;;;2.93;;
14125;SDS011;7141;49.484;11.242;2023-02-28T00:37:55;4.30;;;2.83;;
14125;SDS011;7141;49.484;11.242;2023-02-28T00:40:21;7.57;;;3.53;;
14125;SDS011;7141;49.484;11.242;2023-02-28T00:42:48;6.70;;;2.87;;
14125;SDS011;7141;49.484;11.242;2023-02-28T00:45:14;6.03;;;2.87;;
14125;SDS011;7141;49.484;11.242;2023-02-28T00:47:40;5.53;;;3.40;;
14125;SDS011;7141;49.484;11.242;2023-02-28T00:50:06;4.73;;;3.30;;
14125;SDS011;7141;49.484;11.242;2023-02-28T00:52:33;6.13;;;3.10;;
14125;SDS011;7141;49.484;11.242;2023-02-28T00:54:59;4.43;;;3.40;;
14125;SDS011;7141;49.484;11.242;2023-02-28T00:57:25;6.13;;;3.37;;
14125;SDS011;7141;49.484;11.242;2023-02-28T00:59:51;4.50;;;3.03;;
14125;SDS011;7141;49.484;11.242;2023-02-28T01:02:19;4.67;;;3.07;;
14125;SDS011;7141;49.484;11.242;2023-02-28T01:04:45;3.67;;;2.97;;
14125;SDS011;7141;49.484;11.242;2023-02-28T01:07:11;4.77;;;2.93;;
14125;SDS011;7141;49.484;11.242;2023-02-28T01:09:39;9.60;;;3.60;;
14125;SDS011;7141;49.484;11.242;2023-02-28T01:12:06;3.83;;;2.87;;
14125;SDS011;7141;49.484;11.242;2023-02-28T01:14:32;6.70;;;3.57;;
14125;SDS011;7141;49.484;11.242;2023-02-28T01:16:58;4.57;;;2.60;;
14125;SDS011;7141;49.484;11.242;2023-02-28T01:19:24;4.33;;;2.70;;
14125;SDS011;7141;49.484;11.242;2023-02-28T01:21:50;3.80;;;2.83;;
14125;SDS011;7141;49.484;11.242;2023-02-28T01:24:16;4.63;;;2.73;;
14125;SDS011;7141;49.484;11.242;2023-02-28T01:26:42;4.57;;;2.87;;
14125;SDS011;7141;49.484;11.242;2023-02-28T01:29:07;7.77;;;3.40;;
14125;SDS011;7141;49.484;11.242;2023-02-28T01:31:33;8.27;;;3.47;;
14125;SDS011;7141;49.484;11.242;2023-02-28T01:33:59;5.30;;;3.00;;
14125;SDS011;7141;49.484;11.242;2023-02-28T01:36:25;5.43;;;3.20;;
14125;SDS011;7141;49.484;11.242;2023-02-28T01:38:52;4.83;;;3.40;;
14125;SDS011;7141;49.484;11.242;2023-02-28T01:41:19;5.03;;;3.57;;
14125;SDS011;7141;49.484;11.242;2023-02-28T01:46:11;5.80;;;2.87;;
14125;SDS011;7141;49.484;11.242;2023-02-28T01:48:39;4.70;;;3.00;;
14125;SDS011;7141;49.484;11.242;2023-02-28T01:51:08;6.10;;;3.33;;
14125;SDS011;7141;49.484;11.242;2023-02-28T01:53:45;9.50;;;3.30;;
14125;SDS011;7141;49.484;11.242;2023-02-28T01:56:13;7.63;;;3.03;;
14125;SDS011;7141;49.484;11.242;2023-02-28T01:58:45;4.90;;;2.77;;
14125;SDS011;7141;49.484;11.242;2023-02-28T02:01:12;5.67;;;2.90;;
14125;SDS011;7141;49.484;11.242;2023-02-28T02:03:46;7.23;;;3.20;;
14125;SDS011;7141;49.484;11.242;2023-02-28T02:06:12;6.47;;;3.53;;
14125;SDS011;7141;49.484;11.242;2023-02-28T02:08:38;7.77;;;3.33;;
14125;SDS011;7141;49.484;11.242;2023-02-28T02:11:04;7.73;;;3.50;;
14125;SDS011;7141;49.484;11.242;2023-02-28T02:13:40;7.03;;;3.57;;
14125;SDS011;7141;49.484;11.242;2023-02-28T02:26:44;5.47;;;3.47;;
14125;SDS011;7141;49.484;11.242;2023-02-28T02:37:21;5.53;;;3.60;;
14125;SDS011;7141;49.484;11.242;2023-02-28T02:39:56;8.13;;;3.90;;
14125;SDS011;7141;49.484;11.242;2023-02-28T02:42:47;6.87;;;3.90;;
14125;SDS011;7141;49.484;11.242;2023-02-28T02:45:11;6.37;;;3.80;;
14125;SDS011;7141;49.484;11.242;2023-02-28T02:47:39;5.23;;;3.67;;
14125;SDS011;7141;49.484;11.242;2023-02-28T02:50:06;5.70;;;3.53;;
14125;SDS011;7141;49.484;11.242;2023-02-28T02:52:36;7.63;;;3.40;;
14125;SDS011;7141;49.484;11.242;2023-02-28T02:55:05;6.70;;;3.87;;
14125;SDS011;7141;49.484;11.242;2023-02-28T02:57:34;6.37;;;3.90;;
14125;SDS011;7141;49.484;11.242;2023-02-28T03:00:02;6.00;;;3.40;;
14125;SDS011;7141;49.484;11.242;2023-02-28T03:02:30;6.60;;;4.30;;
14125;SDS011;7141;49.484;11.242;2023-02-28T03:04:59;8.90;;;4.10;;
14125;SDS011;7141;49.484;11.242;2023-02-28T03:07:27;5.30;;;3.70;;
14125;SDS011;7141;49.484;11.242;2023-02-28T03:09:56;7.17;;;3.77;;
14125;SDS011;7141;49.484;11.242;2023-02-28T03:12:23;9.10;;;4.60;;
14125;SDS011;7141;49.484;11.242;2023-02-28T03:15:01;6.40;;;3.70;;
14125;SDS011;7141;49.484;11.242;2023-02-28T03:32:56;9.27;;;3.97;;
14125;SDS011;7141;49.484;11.242;2023-02-28T03:35:23;8.27;;;4.33;;
14125;SDS011;7141;49.484;11.242;2023-02-28T03:37:52;7.27;;;4.60;;
14125;SDS011;7141;49.484;11.242;2023-02-28T03:40:22;6.20;;;3.93;;
14125;SDS011;7141;49.484;11.242;2023-02-28T03:42:50;8.30;;;5.07;;
14125;SDS011;7141;49.484;11.242;2023-02-28T03:45:18;8.87;;;4.43;;
14125;SDS011;7141;49.484;11.242;2023-02-28T03:47:47;7.50;;;4.50;;
14125;SDS011;7141;49.484;11.242;2023-02-28T03:50:18;6.43;;;4.20;;
14125;SDS011;7141;49.484;11.242;2023-02-28T03:52:50;9.17;;;4.70;;
14125;SDS011;7141;49.484;11.242;2023-02-28T03:55:17;10.70;;;4.53;;
14125;SDS011;7141;49.484;11.242;2023-02-28T03:57:47;7.83;;;4.60;;
14125;SDS011;7141;49.484;11.242;2023-02-28T04:00:20;6.97;;;4.37;;
14125;SDS011;7141;49.484;11.242;2023-02-28T04:02:46;12.10;;;4.83;;
14125;SDS011;7141;49.484;11.242;2023-02-28T04:05:17;7.47;;;4.90;;
14125;SDS011;7141;49.484;11.242;2023-02-28T04:07:43;10.20;;;5.13;;
14125;SDS011;7141;49.484;11.242;2023-02-28T04:10:10;7.90;;;4.67;;
14125;SDS011;7141;49.484;11.242;2023-02-28T04:12:36;9.70;;;5.10;;
14125;SDS011;7141;49.484;11.242;2023-02-28T04:15:02;8.83;;;4.53;;
14125;SDS011;7141;49.484;11.242;2023-02-28T04:17:28;8.23;;;4.60;;
14125;SDS011;7141;49.484;11.242;2023-02-28T04:19:54;7.50;;;5.00;;
14125;SDS011;7141;49.484;11.242;2023-02-28T04:22:21;7.93;;;4.70;;
14125;SDS011;7141;49.484;11.242;2023-02-28T04:24:47;7.90;;;4.80;;
14125;SDS011;7141;49.484;11.242;2023-02-28T04:27:13;10.47;;;5.03;;
14125;SDS011;7141;49.484;11.242;2023-02-28T04:29:40;6.90;;;4.47;;
14125;SDS011;7141;49.484;11.242;2023-02-28T04:32:09;7.43;;;4.60;;
14125;SDS011;7141;49.484;11.242;2023-02-28T04:34:35;7.27;;;4.47;;
14125;SDS011;7141;49.484;11.242;2023-02-28T04:37:01;8.53;;;5.30;;
14125;SDS011;7141;49.484;11.242;2023-02-28T04:39:28;10.30;;;5.60;;
14125;SDS011;7141;49.484;11.242;2023-02-28T04:41:54;9.87;;;5.50;;
14125;SDS011;7141;49.484;11.242;2023-02-28T04:44:20;7.67;;;4.67;;
14125;SDS011;7141;49.484;11.242;2023-02-28T04:46:47;8.87;;;5.07;;
14125;SDS011;7141;49.484;11.242;2023-02-28T04:49:13;7.57;;;4.67;;
14125;SDS011;7141;49.484;11.242;2023-02-28T04:51:39;9.13;;;5.30;;
14125;SDS011;7141;49.484;11.242;2023-02-28T04:54:05;9.80;;;5.07;;
14125;SDS011;7141;49.484;11.242;2023-02-28T04:56:31;8.50;;;4.97;;
14125;SDS011;7141;49.484;11.242;2023-02-28T04:58:57;7.30;;;4.60;;
14125;SDS011;7141;49.484;11.242;2023-02-28T05:03:50;10.30;;;5.47;;
14125;SDS011;7141;49.484;11.242;2023-02-28T05:06:16;10.27;;;4.67;;
14125;SDS011;7141;49.484;11.242;2023-02-28T05:08:43;7.00;;;4.70;;
14125;SDS011;7141;49.484;11.242;2023-02-28T05:11:13;7.93;;;5.30;;
14125;SDS011;7141;49.484;11.242;2023-02-28T05:13:39;9.30;;;5.40;;
14125;SDS011;7141;49.484;11.242;2023-02-28T05:16:05;9.63;;;5.27;;
14125;SDS011;7141;49.484;11.242;2023-02-28T05:18:31;10.37;;;5.57;;
14125;SDS011;7141;49.484;11.242;2023-02-28T05:20:57;10.90;;;5.73;;
14125;SDS011;7141;49.484;11.242;2023-02-28T05:23:23;10.27;;;4.47;;
14125;SDS011;7141;49.484;11.242;2023-02-28T05:25:49;8.50;;;5.30;;
14125;SDS011;7141;49.484;11.242;2023-02-28T05:28:16;11.17;;;5.47;;
14125;SDS011;7141;49.484;11.242;2023-02-28T05:30:42;7.97;;;5.77;;
14125;SDS011;7141;49.484;11.242;2023-02-28T05:33:10;10.90;;;5.60;;
14125;SDS011;7141;49.484;11.242;2023-02-28T05:35:37;10.17;;;5.77;;
14125;SDS011;7141;49.484;11.242;2023-02-28T05:38:03;8.80;;;5.37;;
14125;SDS011;7141;49.484;11.242;2023-02-28T05:40:29;8.80;;;5.07;;
14125;SDS011;7141;49.484;11.242;2023-02-28T05:42:55;13.10;;;5.77;;
14125;SDS011;7141;49.484;11.242;2023-02-28T05:45:21;10.30;;;5.83;;
14125;SDS011;7141;49.484;11.242;2023-02-28T05:47:47;9.90;;;6.10;;
14125;SDS011;7141;49.484;11.242;2023-02-28T05:50:13;10.63;;;5.77;;
14125;SDS011;7141;49.484;11.242;2023-02-28T05:52:39;10.70;;;5.83;;
14125;SDS011;7141;49.484;11.242;2023-02-28T05:55:05;10.10;;;5.57;;
14125;SDS011;7141;49.484;11.242;2023-02-28T05:57:31;8.37;;;5.53;;
14125;SDS011;7141;49.484;11.242;2023-02-28T05:59:57;11.93;;;5.63;;
14125;SDS011;7141;49.484;11.242;2023-02-28T06:02:23;11.33;;;6.23;;
14125;SDS011;7141;49.484;11.242;2023-02-28T06:04:49;9.03;;;5.60;;
14125;SDS011;7141;49.484;11.242;2023-02-28T06:07:15;8.57;;;5.43;;
14125;SDS011;7141;49.484;11.242;2023-02-28T06:09:42;9.50;;;5.67;;
14125;SDS011;7141;49.484;11.242;2023-02-28T06:12:09;12.83;;;6.30;;
14125;SDS011;7141;49.484;11.242;2023-02-28T06:14:35;13.10;;;5.83;;
14125;SDS011;7141;49.484;11.242;2023-02-28T06:17:02;12.20;;;6.20;;
14125;SDS011;7141;49.484;11.242;2023-02-28T06:19:28;8.70;;;5.33;;
14125;SDS011;7141;49.484;11.242;2023-02-28T06:21:55;8.90;;;5.40;;
14125;SDS011;7141;49.484;11.242;2023-02-28T06:24:22;9.63;;;5.90;;
14125;SDS011;7141;49.484;11.242;2023-02-28T06:26:49;11.13;;;6.30;;
14125;SDS011;7141;49.484;11.242;2023-02-28T06:29:15;12.57;;;6.13;;
14125;SDS011;7141;49.484;11.242;2023-02-28T06:31:42;13.10;;;6.90;;
14125;SDS011;7141;49.484;11.242;2023-02-28T06:34:08;13.27;;;6.00;;
14125;SDS011;7141;49.484;11.242;2023-02-28T06:36:36;10.57;;;5.97;;
14125;SDS011;7141;49.484;11.242;2023-02-28T06:39:02;11.03;;;6.87;;
14125;SDS011;7141;49.484;11.242;2023-02-28T06:41:28;11.10;;;6.73;;
14125;SDS011;7141;49.484;11.242;2023-02-28T06:43:54;8.50;;;5.67;;
14125;SDS011;7141;49.484;11.242;2023-02-28T06:46:20;16.23;;;6.03;;
14125;SDS011;7141;49.484;11.242;2023-02-28T06:48:47;11.03;;;5.90;;
14125;SDS011;7141;49.484;11.242;2023-02-28T06:51:14;8.40;;;5.33;;
14125;SDS011;7141;49.484;11.242;2023-02-28T06:53:41;9.67;;;6.13;;
14125;SDS011;7141;49.484;11.242;2023-02-28T06:56:08;10.57;;;6.10;;
14125;SDS011;7141;49.484;11.242;2023-02-28T06:58:34;9.63;;;5.73;;
14125;SDS011;7141;49.484;11.242;2023-02-28T07:01:01;10.57;;;5.77;;
14125;SDS011;7141;49.484;11.242;2023-02-28T07:03:27;10.17;;;6.30;;
14125;SDS011;7141;49.484;11.242;2023-02-28T07:05:53;10.23;;;5.67;;
14125;SDS011;7141;49.484;11.242;2023-02-28T07:08:21;12.60;;;5.83;;
14125;SDS011;7141;49.484;11.242;2023-02-28T07:10:47;9.93;;;5.87;;
14125;SDS011;7141;49.484;11.242;2023-02-28T07:13:16;9.43;;;6.37;;
14125;SDS011;7141;49.484;11.242;2023-02-28T07:15:42;12.17;;;5.90;;
14125;SDS011;7141;49.484;11.242;2023-02-28T07:18:08;11.97;;;6.33;;
14125;SDS011;7141;49.484;11.242;2023-02-28T07:20:34;11.60;;;6.33;;
14125;SDS011;7141;49.484;11.242;2023-02-28T07:23:00;12.07;;;6.20;;
14125;SDS011;7141;49.484;11.242;2023-02-28T07:25:27;8.77;;;5.80;;
14125;SDS011;7141;49.484;11.242;2023-02-28T07:27:53;10.67;;;5.90;;
14125;SDS011;7141;49.484;11.242;2023-02-28T07:30:20;14.27;;;5.90;;
14125;SDS011;7141;49.484;11.242;2023-02-28T07:32:46;8.57;;;5.53;;
14125;SDS011;7141;49.484;11.242;2023-02-28T07:35:12;12.30;;;5.73;;
14125;SDS011;7141;49.484;11.242;2023-02-28T07:37:40;10.40;;;5.80;;
14125;SDS011;7141;49.484;11.242;2023-02-28T07:40:07;10.73;;;6.37;;
14125;SDS011;7141;49.484;11.242;2023-02-28T07:42:36;9.47;;;6.27;;
14125;SDS011;7141;49.484;11.242;2023-02-28T07:45:02;12.17;;;6.37;;
14125;SDS011;7141;49.484;11.242;2023-02-28T07:47:31;10.67;;;6.27;;
14125;SDS011;7141;49.484;11.242;2023-02-28T07:49:57;11.33;;;6.60;;
14125;SDS011;7141;49.484;11.242;2023-02-28T07:52:23;27.83;;;11.87;;
14125;SDS011;7141;49.484;11.242;2023-02-28T07:54:49;16.83;;;8.00;;
14125;SDS011;7141;49.484;11.242;2023-02-28T07:57:15;11.20;;;6.50;;
14125;SDS011;7141;49.484;11.242;2023-02-28T07:59:42;11.77;;;6.53;;
14125;SDS011;7141;49.484;11.242;2023-02-28T08:02:14;8.93;;;6.10;;
14125;SDS011;7141;49.484;11.242;2023-02-28T08:04:40;10.97;;;6.63;;
14125;SDS011;7141;49.484;11.242;2023-02-28T08:07:06;12.63;;;6.23;;
14125;SDS011;7141;49.484;11.242;2023-02-28T08:09:33;12.83;;;6.93;;
14125;SDS011;7141;49.484;11.242;2023-02-28T08:11:59;12.23;;;6.73;;
14125;SDS011;7141;49.484;11.242;2023-02-28T08:14:25;11.00;;;6.40;;
14125;SDS011;7141;49.484;11.242;2023-02-28T08:16:51;10.30;;;6.63;;
14125;SDS011;7141;49.484;11.242;2023-02-28T08:19:17;10.57;;;7.03;;
14125;SDS011;7141;49.484;11.242;2023-02-28T08:21:43;12.80;;;7.13;;
14125;SDS011;7141;49.484;11.242;2023-02-28T08:24:09;13.07;;;7.33;;
14125;SDS011;7141;49.484;11.242;2023-02-28T08:26:35;12.70;;;7.83;;
14125;SDS011;7141;49.484;11.242;2023-02-28T08:29:01;13.67;;;7.23;;
14125;SDS011;7141;49.484;11.242;2023-02-28T08:31:27;12.33;;;6.87;;
14125;SDS011;7141;49.484;11.242;2023-02-28T08:33:52;10.00;;;6.97;;
14125;SDS011;7141;49.484;11.242;2023-02-28T08:36:21;11.93;;;6.83;;
14125;SDS011;7141;49.484;11.242;2023-02-28T08:38:47;11.67;;;6.87;;
14125;SDS011;7141;49.484;11.242;2023-02-28T08:41:13;8.97;;;6.43;;
14125;SDS011;7141;49.484;11.242;2023-02-28T08:43:39;12.07;;;6.63;;
14125;SDS011;7141;49.484;11.242;2023-02-28T08:46:06;10.10;;;6.90;;
14125;SDS011;7141;49.484;11.242;2023-02-28T08:48:33;10.63;;;7.50;;
14125;SDS011;7141;49.484;11.242;2023-02-28T08:51:00;10.83;;;6.70;;
14125;SDS011;7141;49.484;11.242;2023-02-28T08:53:26;12.20;;;6.87;;
14125;SDS011;7141;49.484;11.242;2023-02-28T08:55:56;10.63;;;6.27;;
14125;SDS011;7141;49.484;11.242;2023-02-28T08:58:22;11.43;;;6.23;;
14125;SDS011;7141;49.484;11.242;2023-02-28T09:00:48;11.97;;;6.63;;
14125;SDS011;7141;49.484;11.242;2023-02-28T09:03:15;14.10;;;6.60;;
14125;SDS011;7141;49.484;11.242;2023-02-28T09:05:41;9.60;;;6.40;;
14125;SDS011;7141;49.484;11.242;2023-02-28T09:08:07;11.87;;;6.37;;
14125;SDS011;7141;49.484;11.242;2023-02-28T09:10:34;11.43;;;7.00;;
14125;SDS011;7141;49.484;11.242;2023-02-28T09:13:00;10.93;;;6.40;;
14125;SDS011;7141;49.484;11.242;2023-02-28T09:15:26;9.10;;;6.37;;
14125;SDS011;7141;49.484;11.242;2023-02-28T09:17:52;11.77;;;6.00;;
14125;SDS011;7141;49.484;11.242;2023-02-28T09:20:18;9.93;;;5.87;;
14125;SDS011;7141;49.484;11.242;2023-02-28T09:22:44;12.20;;;6.40;;
14125;SDS011;7141;49.484;11.242;2023-02-28T09:25:10;13.13;;;7.00;;
14125;SDS011;7141;49.484;11.242;2023-02-28T09:27:36;10.77;;;6.57;;
14125;SDS011;7141;49.484;11.242;2023-02-28T09:30:02;9.73;;;5.63;;
14125;SDS011;7141;49.484;11.242;2023-02-28T09:32:28;10.43;;;6.60;;
14125;SDS011;7141;49.484;11.242;2023-02-28T09:34:54;13.73;;;6.90;;
14125;SDS011;7141;49.484;11.242;2023-02-28T09:37:20;7.83;;;5.63;;
14125;SDS011;7141;49.484;11.242;2023-02-28T09:39:46;8.40;;;5.67;;
14125;SDS011;7141;49.484;11.242;2023-02-28T09:42:17;11.50;;;6.67;;
14125;SDS011;7141;49.484;11.242;2023-02-28T09:44:45;10.83;;;6.10;;
14125;SDS011;7141;49.484;11.242;2023-02-28T09:47:16;9.47;;;6.13;;
14125;SDS011;7141;49.484;11.242;2023-02-28T09:49:45;8.33;;;5.97;;
14125;SDS011;7141;49.484;11.242;2023-02-28T09:52:13;9.07;;;5.80;;
14125;SDS011;7141;49.484;11.242;2023-02-28T09:54:41;8.97;;;5.37;;
14125;SDS011;7141;49.484;11.242;2023-02-28T09:57:11;8.40;;;5.83;;
14125;SDS011;7141;49.484;11.242;2023-02-28T10:02:21;7.13;;;4.90;;
14125;SDS011;7141;49.484;11.242;2023-02-28T10:04:51;12.40;;;6.00;;
14125;SDS011;7141;49.484;11.242;2023-02-28T10:07:30;9.47;;;5.63;;
14125;SDS011;7141;49.484;11.242;2023-02-28T10:10:02;9.73;;;5.83;;
14125;SDS011;7141;49.484;11.242;2023-02-28T10:12:29;7.13;;;5.17;;
14125;SDS011;7141;49.484;11.242;2023-02-28T10:14:56;9.10;;;5.60;;
14125;SDS011;7141;49.484;11.242;2023-02-28T10:17:25;9.63;;;4.63;;
14125;SDS011;7141;49.484;11.242;2023-02-28T10:19:56;12.13;;;5.43;;
14125;SDS011;7141;49.484;11.242;2023-02-28T10:25:22;7.40;;;4.87;;
14125;SDS011;7141;49.484;11.242;2023-02-28T10:27:49;8.87;;;5.77;;
14125;SDS011;7141;49.484;11.242;2023-02-28T10:30:15;9.30;;;5.80;;
14125;SDS011;7141;49.484;11.242;2023-02-28T10:32:43;7.43;;;4.93;;
14125;SDS011;7141;49.484;11.242;2023-02-28T10:35:16;10.70;;;5.70;;
14125;SDS011;7141;49.484;11.242;2023-02-28T10:37:45;7.43;;;4.90;;
14125;SDS011;7141;49.484;11.242;2023-02-28T10:43:00;9.17;;;5.20;;
14125;SDS011;7141;49.484;11.242;2023-02-28T10:45:26;7.97;;;4.87;;
14125;SDS011;7141;49.484;11.242;2023-02-28T10:47:55;10.97;;;5.77;;
14125;SDS011;7141;49.484;11.242;2023-02-28T10:50:42;11.30;;;5.43;;
14125;SDS011;7141;49.484;11.242;2023-02-28T10:58:23;9.63;;;5.33;;
14125;SDS011;7141;49.484;11.242;2023-02-28T11:00:49;11.43;;;5.73;;
14125;SDS011;7141;49.484;11.242;2023-02-28T11:03:50;8.50;;;5.73;;
14125;SDS011;7141;49.484;11.242;2023-02-28T11:06:13;10.77;;;5.67;;
14125;SDS011;7141;49.484;11.242;2023-02-28T11:08:44;11.17;;;6.10;;
14125;SDS011;7141;49.484;11.242;2023-02-28T11:11:10;9.73;;;5.77;;
14125;SDS011;7141;49.484;11.242;2023-02-28T11:13:36;9.97;;;5.03;;
14125;SDS011;7141;49.484;11.242;2023-02-28T11:16:07;9.70;;;5.47;;
14125;SDS011;7141;49.484;11.242;2023-02-28T11:18:44;12.00;;;6.20;;
14125;SDS011;7141;49.484;11.242;2023-02-28T11:21:20;8.50;;;5.30;;
14125;SDS011;7141;49.484;11.242;2023-02-28T11:23:48;10.93;;;5.97;;
14125;SDS011;7141;49.484;11.242;2023-02-28T11:26:15;12.30;;;7.07;;
14125;SDS011;7141;49.484;11.242;2023-02-28T11:28:42;7.80;;;5.17;;
14125;SDS011;7141;49.484;11.242;2023-02-28T11:36:11;11.63;;;5.53;;
14125;SDS011;7141;49.484;11.242;2023-02-28T11:38:37;6.80;;;4.93;;
14125;SDS011;7141;49.484;11.242;2023-02-28T11:41:11;8.57;;;5.53;;
14125;SDS011;7141;49.484;11.242;2023-02-28T11:46:24;9.17;;;5.57;;
14125;SDS011;7141;49.484;11.242;2023-02-28T11:51:27;10.70;;;5.50;;
14125;SDS011;7141;49.484;11.242;2023-02-28T11:59:49;11.63;;;5.33;;
14125;SDS011;7141;49.484;11.242;2023-02-28T12:07:41;10.93;;;5.63;;
14125;SDS011;7141;49.484;11.242;2023-02-28T12:10:20;9.80;;;6.10;;
14125;SDS011;7141;49.484;11.242;2023-02-28T12:23:40;9.27;;;5.80;;
14125;SDS011;7141;49.484;11.242;2023-02-28T12:26:16;9.87;;;5.97;;
14125;SDS011;7141;49.484;11.242;2023-02-28T12:28:47;9.70;;;6.03;;
14125;SDS011;7141;49.484;11.242;2023-02-28T12:33:53;10.73;;;6.27;;
14125;SDS011;7141;49.484;11.242;2023-02-28T12:36:22;8.57;;;6.03;;
14125;SDS011;7141;49.484;11.242;2023-02-28T12:38:53;9.97;;;5.87;;
14125;SDS011;7141;49.484;11.242;2023-02-28T12:41:22;9.00;;;5.37;;
14125;SDS011;7141;49.484;11.242;2023-02-28T12:44:00;9.57;;;5.63;;
14125;SDS011;7141;49.484;11.242;2023-02-28T12:46:32;9.37;;;5.97;;
14125;SDS011;7141;49.484;11.242;2023-02-28T12:48:59;9.87;;;5.80;;
14125;SDS011;7141;49.484;11.242;2023-02-28T12:51:26;9.50;;;6.07;;
14125;SDS011;7141;49.484;11.242;2023-02-28T13:00:01;11.63;;;6.67;;
14125;SDS011;7141;49.484;11.242;2023-02-28T13:10:05;8.40;;;6.33;;
14125;SDS011;7141;49.484;11.242;2023-02-28T13:12:32;12.17;;;6.40;;
14125;SDS011;7141;49.484;11.242;2023-02-28T13:15:13;10.83;;;6.23;;
14125;SDS011;7141;49.484;11.242;2023-02-28T13:17:44;9.73;;;6.13;;
14125;SDS011;7141;49.484;11.242;2023-02-28T13:20:18;13.40;;;6.03;;
14125;SDS011;7141;49.484;11.242;2023-02-28T13:22:46;11.63;;;7.20;;
14125;SDS011;7141;49.484;11.242;2023-02-28T13:27:48;9.60;;;5.83;;
14125;SDS011;7141;49.484;11.242;2023-02-28T13:35:48;10.23;;;6.73;;
14125;SDS011;7141;49.484;11.242;2023-02-28T13:38:32;10.60;;;6.30;;
14125;SDS011;7141;49.484;11.242;2023-02-28T13:44:01;11.03;;;6.53;;
14125;SDS011;7141;49.484;11.242;2023-02-28T13:46:27;9.93;;;6.20;;
14125;SDS011;7141;49.484;11.242;2023-02-28T13:48:54;11.83;;;6.83;;
14125;SDS011;7141;49.484;11.242;2023-02-28T13:51:40;11.60;;;6.70;;
14125;SDS011;7141;49.484;11.242;2023-02-28T13:57:35;16.37;;;7.73;;
14125;SDS011;7141;49.484;11.242;2023-02-28T14:07:15;10.10;;;6.60;;
14125;SDS011;7141;49.484;11.242;2023-02-28T14:09:45;9.33;;;6.03;;
14125;SDS011;7141;49.484;11.242;2023-02-28T14:14:56;10.80;;;6.83;;
14125;SDS011;7141;49.484;11.242;2023-02-28T14:17:22;12.37;;;6.37;;
14125;SDS011;7141;49.484;11.242;2023-02-28T14:19:48;10.53;;;6.67;;
14125;SDS011;7141;49.484;11.242;2023-02-28T14:23:18;18.73;;;9.17;;
14125;SDS011;7141;49.484;11.242;2023-02-28T14:27:38;11.60;;;7.60;;
14125;SDS011;7141;49.484;11.242;2023-02-28T14:30:20;10.37;;;6.60;;
14125;SDS011;7141;49.484;11.242;2023-02-28T14:33:00;12.50;;;6.87;;
14125;SDS011;7141;49.484;11.242;2023-02-28T14:35:45;12.87;;;6.90;;
14125;SDS011;7141;49.484;11.242;2023-02-28T14:38:36;17.97;;;8.17;;
14125;SDS011;7141;49.484;11.242;2023-02-28T14:41:04;19.40;;;8.20;;
14125;SDS011;7141;49.484;11.242;2023-02-28T14:43:31;16.07;;;7.90;;
14125;SDS011;7141;49.484;11.242;2023-02-28T14:46:00;9.30;;;6.60;;
14125;SDS011;7141;49.484;11.242;2023-02-28T14:48:26;11.70;;;6.30;;
14125;SDS011;7141;49.484;11.242;2023-02-28T14:50:56;14.00;;;7.00;;
14125;SDS011;7141;49.484;11.242;2023-02-28T14:53:23;11.33;;;7.10;;
14125;SDS011;7141;49.484;11.242;2023-02-28T14:55:50;11.23;;;6.37;;
14125;SDS011;7141;49.484;11.242;2023-02-28T14:58:30;10.33;;;6.70;;
14125;SDS011;7141;49.484;11.242;2023-02-28T15:00:58;12.83;;;7.07;;
14125;SDS011;7141;49.484;11.242;2023-02-28T15:03:35;11.10;;;6.57;;
14125;SDS011;7141;49.484;11.242;2023-02-28T15:08:27;12.70;;;7.53;;
14125;SDS011;7141;49.484;11.242;2023-02-28T15:10:58;10.90;;;7.17;;
14125;SDS011;7141;49.484;11.242;2023-02-28T15:13:26;11.97;;;6.43;;
14125;SDS011;7141;49.484;11.242;2023-02-28T15:15:57;9.23;;;6.30;;
14125;SDS011;7141;49.484;11.242;2023-02-28T15:21:11;10.57;;;6.23;;
14125;SDS011;7141;49.484;11.242;2023-02-28T15:23:37;10.70;;;6.33;;
14125;SDS011;7141;49.484;11.242;2023-02-28T15:26:04;9.23;;;6.47;;
14125;SDS011;7141;49.484;11.242;2023-02-28T15:28:30;9.43;;;6.70;;
14125;SDS011;7141;49.484;11.242;2023-02-28T15:30:58;8.90;;;6.10;;
14125;SDS011;7141;49.484;11.242;2023-02-28T15:33:25;10.30;;;5.97;;
14125;SDS011;7141;49.484;11.242;2023-02-28T15:36:03;9.83;;;6.53;;
14125;SDS011;7141;49.484;11.242;2023-02-28T15:38:29;11.53;;;6.47;;
14125;SDS011;7141;49.484;11.242;2023-02-28T15:40:56;14.43;;;7.03;;
14125;SDS011;7141;49.484;11.242;2023-02-28T15:43:26;11.33;;;6.13;;
14125;SDS011;7141;49.484;11.242;2023-02-28T15:46:03;10.63;;;6.07;;
14125;SDS011;7141;49.484;11.242;2023-02-28T15:48:34;11.10;;;6.03;;
14125;SDS011;7141;49.484;11.242;2023-02-28T15:51:08;15.97;;;8.03;;
14125;SDS011;7141;49.484;11.242;2023-02-28T15:53:36;15.63;;;7.83;;
14125;SDS011;7141;49.484;11.242;2023-02-28T15:56:12;9.17;;;5.90;;
14125;SDS011;7141;49.484;11.242;2023-02-28T15:58:42;9.40;;;6.40;;
14125;SDS011;7141;49.484;11.242;2023-02-28T16:03:38;12.07;;;7.30;;
14125;SDS011;7141;49.484;11.242;2023-02-28T16:06:09;10.17;;;6.70;;
14125;SDS011;7141;49.484;11.242;2023-02-28T16:08:35;10.00;;;7.33;;
14125;SDS011;7141;49.484;11.242;2023-02-28T16:11:01;12.13;;;7.33;;
14125;SDS011;7141;49.484;11.242;2023-02-28T16:13:27;12.17;;;7.00;;
14125;SDS011;7141;49.484;11.242;2023-02-28T16:15:53;9.83;;;6.90;;
14125;SDS011;7141;49.484;11.242;2023-02-28T16:18:19;11.37;;;7.30;;
14125;SDS011;7141;49.484;11.242;2023-02-28T16:20:45;11.63;;;6.83;;
14125;SDS011;7141;49.484;11.242;2023-02-28T16:23:11;10.43;;;6.40;;
14125;SDS011;7141;49.484;11.242;2023-02-28T16:25:42;13.67;;;6.90;;
14125;SDS011;7141;49.484;11.242;2023-02-28T16:28:12;10.10;;;6.80;;
14125;SDS011;7141;49.484;11.242;2023-02-28T16:30:41;12.43;;;7.13;;
14125;SDS011;7141;49.484;11.242;2023-02-28T16:33:07;12.33;;;6.90;;
14125;SDS011;7141;49.484;11.242;2023-02-28T16:35:33;11.83;;;6.70;;
14125;SDS011;7141;49.484;11.242;2023-02-28T16:37:59;12.90;;;7.37;;
14125;SDS011;7141;49.484;11.242;2023-02-28T16:40:26;11.90;;;6.90;;
14125;SDS011;7141;49.484;11.242;2023-02-28T16:42:55;11.67;;;7.30;;
14125;SDS011;7141;49.484;11.242;2023-02-28T16:45:24;11.87;;;7.10;;
14125;SDS011;7141;49.484;11.242;2023-02-28T16:47:50;12.57;;;7.40;;
14125;SDS011;7141;49.484;11.242;2023-02-28T16:50:23;11.73;;;7.87;;
14125;SDS011;7141;49.484;11.242;2023-02-28T16:52:50;14.03;;;8.60;;
14125;SDS011;7141;49.484;11.242;2023-02-28T16:55:19;13.87;;;7.70;;
14125;SDS011;7141;49.484;11.242;2023-02-28T16:57:55;13.47;;;8.67;;
14125;SDS011;7141;49.484;11.242;2023-02-28T17:00:22;12.63;;;7.77;;
14125;SDS011;7141;49.484;11.242;2023-02-28T17:02:48;19.23;;;10.10;;